sensor_id;sensor_type;location;lat;lon;timestamp;temperature;humidity
51853;DHT22;37894;53.172;6.598;2022-09-09T00:04:36;14.50;99.90
51853;DHT22;37894;53.172;6.598;2022-09-09T00:18:28;14.30;99.90
51853;DHT22;37894;53.172;6.598;2022-09-09T00:23:55;14.30;99.90
51853;DHT22;37894;53.172;6.598;2022-09-09T00:26:35;14.20;99.90
51853;DHT22;37894;53.172;6.598;2022-09-09T00:29:05;14.20;99.90
51853;DHT22;37894;53.172;6.598;2022-09-09T00:31:35;14.30;99.90
51853;DHT22;37894;53.172;6.598;2022-09-09T00:36:38;14.10;99.90
51853;DHT22;37894;53.172;6.598;2022-09-09T00:39:04;14.10;99.90
51853;DHT22;37894;53.172;6.598;2022-09-09T00:46:55;14.00;99.90
51853;DHT22;37894;53.172;6.598;2022-09-09T00:49:50;14.00;99.90
51853;DHT22;37894;53.172;6.598;2022-09-09T00:55:07;13.90;99.90
51853;DHT22;37894;53.172;6.598;2022-09-09T00:57:36;13.90;99.90
51853;DHT22;37894;53.172;6.598;2022-09-09T01:00:22;13.90;99.90
51853;DHT22;37894;53.172;6.598;2022-09-09T01:03:13;13.90;99.90
51853;DHT22;37894;53.172;6.598;2022-09-09T01:10:52;13.80;99.90
51853;DHT22;37894;53.172;6.598;2022-09-09T01:13:28;14.20;99.90
51853;DHT22;37894;53.172;6.598;2022-09-09T01:16:02;13.80;99.90
51853;DHT22;37894;53.172;6.598;2022-09-09T01:18:50;13.80;99.90
51853;DHT22;37894;53.172;6.598;2022-09-09T01:21:42;13.70;99.90
51853;DHT22;37894;53.172;6.598;2022-09-09T01:26:48;13.70;99.90
51853;DHT22;37894;53.172;6.598;2022-09-09T01:29:17;13.60;99.90
51853;DHT22;37894;53.172;6.598;2022-09-09T01:31:59;13.60;99.90
51853;DHT22;37894;53.172;6.598;2022-09-09T01:34:29;13.60;99.90
51853;DHT22;37894;53.172;6.598;2022-09-09T01:39:22;13.60;99.90
51853;DHT22;37894;53.172;6.598;2022-09-09T01:41:48;13.60;99.90
51853;DHT22;37894;53.172;6.598;2022-09-09T01:44:13;13.60;99.90
51853;DHT22;37894;53.172;6.598;2022-09-09T01:46:39;13.60;99.90
51853;DHT22;37894;53.172;6.598;2022-09-09T01:49:06;13.50;99.90
51853;DHT22;37894;53.172;6.598;2022-09-09T01:51:35;13.50;99.90
51853;DHT22;37894;53.172;6.598;2022-09-09T01:54:02;14.50;99.90
51853;DHT22;37894;53.172;6.598;2022-09-09T01:59:45;13.50;99.90
51853;DHT22;37894;53.172;6.598;2022-09-09T02:05:09;13.50;99.90
51853;DHT22;37894;53.172;6.598;2022-09-09T02:07:41;13.50;99.90
51853;DHT22;37894;53.172;6.598;2022-09-09T02:10:21;13.50;99.90
51853;DHT22;37894;53.172;6.598;2022-09-09T02:13:01;13.50;99.90
51853;DHT22;37894;53.172;6.598;2022-09-09T02:18:12;13.40;99.90
51853;DHT22;37894;53.172;6.598;2022-09-09T02:20:39;13.50;99.90
51853;DHT22;37894;53.172;6.598;2022-09-09T02:23:07;13.40;99.90
51853;DHT22;37894;53.172;6.598;2022-09-09T02:25:35;13.50;99.90
51853;DHT22;37894;53.172;6.598;2022-09-09T02:28:04;13.50;99.90
51853;DHT22;37894;53.172;6.598;2022-09-09T02:30:32;13.50;99.90
51853;DHT22;37894;53.172;6.598;2022-09-09T02:33:01;13.50;99.90
51853;DHT22;37894;53.172;6.598;2022-09-09T02:35:29;13.50;99.90
51853;DHT22;37894;53.172;6.598;2022-09-09T02:37:59;14.20;99.90
51853;DHT22;37894;53.172;6.598;2022-09-09T02:40:25;13.60;99.90
51853;DHT22;37894;53.172;6.598;2022-09-09T02:42:51;13.60;99.90
51853;DHT22;37894;53.172;6.598;2022-09-09T02:45:19;13.60;99.90
51853;DHT22;37894;53.172;6.598;2022-09-09T02:48:11;13.60;99.90
51853;DHT22;37894;53.172;6.598;2022-09-09T02:51:12;13.70;99.90
51853;DHT22;37894;53.172;6.598;2022-09-09T02:53:48;13.70;99.90
51853;DHT22;37894;53.172;6.598;2022-09-09T02:56:18;13.80;99.90
51853;DHT22;37894;53.172;6.598;2022-09-09T02:58:45;14.10;99.90
51853;DHT22;37894;53.172;6.598;2022-09-09T03:01:12;13.80;99.90
51853;DHT22;37894;53.172;6.598;2022-09-09T03:03:38;14.40;99.90
51853;DHT22;37894;53.172;6.598;2022-09-09T03:06:03;13.90;99.90
51853;DHT22;37894;53.172;6.598;2022-09-09T03:08:31;13.90;99.90
51853;DHT22;37894;53.172;6.598;2022-09-09T03:10:58;13.90;99.90
51853;DHT22;37894;53.172;6.598;2022-09-09T03:13:26;14.00;99.90
51853;DHT22;37894;53.172;6.598;2022-09-09T03:15:52;13.90;99.90
51853;DHT22;37894;53.172;6.598;2022-09-09T03:18:17;14.00;99.90
51853;DHT22;37894;53.172;6.598;2022-09-09T03:20:43;14.00;99.90
51853;DHT22;37894;53.172;6.598;2022-09-09T03:23:09;14.00;99.90
51853;DHT22;37894;53.172;6.598;2022-09-09T03:25:34;14.00;99.90
51853;DHT22;37894;53.172;6.598;2022-09-09T03:28:01;14.00;99.90
51853;DHT22;37894;53.172;6.598;2022-09-09T03:30:27;14.00;99.90
51853;DHT22;37894;53.172;6.598;2022-09-09T03:32:53;14.10;99.90
51853;DHT22;37894;53.172;6.598;2022-09-09T03:35:20;14.20;99.90
51853;DHT22;37894;53.172;6.598;2022-09-09T03:37:46;14.10;99.90
51853;DHT22;37894;53.172;6.598;2022-09-09T03:40:12;14.10;99.90
51853;DHT22;37894;53.172;6.598;2022-09-09T03:42:39;14.10;99.90
51853;DHT22;37894;53.172;6.598;2022-09-09T03:45:06;14.20;99.90
51853;DHT22;37894;53.172;6.598;2022-09-09T03:47:32;14.20;99.90
51853;DHT22;37894;53.172;6.598;2022-09-09T03:49:58;14.20;99.90
51853;DHT22;37894;53.172;6.598;2022-09-09T03:52:24;14.90;99.90
51853;DHT22;37894;53.172;6.598;2022-09-09T03:54:52;14.20;99.90
51853;DHT22;37894;53.172;6.598;2022-09-09T03:57:19;14.30;99.90
51853;DHT22;37894;53.172;6.598;2022-09-09T03:59:44;14.30;99.90
51853;DHT22;37894;53.172;6.598;2022-09-09T04:02:10;14.30;99.90
51853;DHT22;37894;53.172;6.598;2022-09-09T04:04:36;14.40;99.90
51853;DHT22;37894;53.172;6.598;2022-09-09T04:07:02;14.30;99.90
51853;DHT22;37894;53.172;6.598;2022-09-09T04:09:28;14.40;99.90
51853;DHT22;37894;53.172;6.598;2022-09-09T04:11:53;14.40;99.90
51853;DHT22;37894;53.172;6.598;2022-09-09T04:14:20;15.10;99.90
51853;DHT22;37894;53.172;6.598;2022-09-09T04:16:46;15.00;99.90
51853;DHT22;37894;53.172;6.598;2022-09-09T04:19:13;14.50;99.90
51853;DHT22;37894;53.172;6.598;2022-09-09T04:21:40;14.50;99.90
51853;DHT22;37894;53.172;6.598;2022-09-09T04:24:09;15.40;99.90
51853;DHT22;37894;53.172;6.598;2022-09-09T04:26:36;14.50;99.90
51853;DHT22;37894;53.172;6.598;2022-09-09T04:29:03;14.50;99.90
51853;DHT22;37894;53.172;6.598;2022-09-09T04:31:28;14.60;99.90
51853;DHT22;37894;53.172;6.598;2022-09-09T04:33:54;14.50;99.90
51853;DHT22;37894;53.172;6.598;2022-09-09T04:36:20;14.40;99.90
51853;DHT22;37894;53.172;6.598;2022-09-09T04:38:46;14.50;99.90
51853;DHT22;37894;53.172;6.598;2022-09-09T04:41:14;14.40;99.90
51853;DHT22;37894;53.172;6.598;2022-09-09T04:43:40;14.50;99.90
51853;DHT22;37894;53.172;6.598;2022-09-09T04:46:06;14.40;99.90
51853;DHT22;37894;53.172;6.598;2022-09-09T04:48:32;14.40;99.90
51853;DHT22;37894;53.172;6.598;2022-09-09T04:51:03;14.40;99.90
51853;DHT22;37894;53.172;6.598;2022-09-09T04:53:30;14.40;99.90
51853;DHT22;37894;53.172;6.598;2022-09-09T04:56:15;14.40;99.90
51853;DHT22;37894;53.172;6.598;2022-09-09T04:58:41;14.50;99.90
51853;DHT22;37894;53.172;6.598;2022-09-09T05:01:15;14.40;99.90
51853;DHT22;37894;53.172;6.598;2022-09-09T05:03:42;14.40;99.90
51853;DHT22;37894;53.172;6.598;2022-09-09T05:06:16;14.70;99.90
51853;DHT22;37894;53.172;6.598;2022-09-09T05:08:43;14.40;99.90
51853;DHT22;37894;53.172;6.598;2022-09-09T05:11:23;14.40;99.90
51853;DHT22;37894;53.172;6.598;2022-09-09T05:13:50;14.40;99.90
51853;DHT22;37894;53.172;6.598;2022-09-09T05:16:17;14.40;99.90
51853;DHT22;37894;53.172;6.598;2022-09-09T05:18:43;14.40;99.90
51853;DHT22;37894;53.172;6.598;2022-09-09T05:21:10;14.40;99.90
51853;DHT22;37894;53.172;6.598;2022-09-09T05:23:37;14.50;99.90
51853;DHT22;37894;53.172;6.598;2022-09-09T05:26:03;14.30;99.90
51853;DHT22;37894;53.172;6.598;2022-09-09T05:28:29;14.40;99.90
51853;DHT22;37894;53.172;6.598;2022-09-09T05:31:03;14.30;99.90
51853;DHT22;37894;53.172;6.598;2022-09-09T05:33:30;15.00;99.90
51853;DHT22;37894;53.172;6.598;2022-09-09T05:36:01;14.40;99.90
51853;DHT22;37894;53.172;6.598;2022-09-09T05:38:28;14.30;99.90
51853;DHT22;37894;53.172;6.598;2022-09-09T05:40:55;14.30;99.90
51853;DHT22;37894;53.172;6.598;2022-09-09T05:43:23;14.40;99.90
51853;DHT22;37894;53.172;6.598;2022-09-09T05:46:05;14.30;99.90
51853;DHT22;37894;53.172;6.598;2022-09-09T05:48:31;14.30;99.90
51853;DHT22;37894;53.172;6.598;2022-09-09T05:50:58;14.30;99.90
51853;DHT22;37894;53.172;6.598;2022-09-09T05:53:23;14.30;99.90
51853;DHT22;37894;53.172;6.598;2022-09-09T05:55:49;14.30;99.90
51853;DHT22;37894;53.172;6.598;2022-09-09T05:58:15;14.30;99.90
51853;DHT22;37894;53.172;6.598;2022-09-09T06:00:42;14.30;99.90
51853;DHT22;37894;53.172;6.598;2022-09-09T06:03:12;14.30;99.90
51853;DHT22;37894;53.172;6.598;2022-09-09T06:05:38;14.40;99.90
51853;DHT22;37894;53.172;6.598;2022-09-09T06:08:04;14.40;99.90
51853;DHT22;37894;53.172;6.598;2022-09-09T06:10:29;14.80;99.90
51853;DHT22;37894;53.172;6.598;2022-09-09T06:12:55;14.40;99.90
51853;DHT22;37894;53.172;6.598;2022-09-09T06:15:20;14.50;99.90
51853;DHT22;37894;53.172;6.598;2022-09-09T06:17:46;14.40;99.90
51853;DHT22;37894;53.172;6.598;2022-09-09T06:20:12;14.40;99.90
51853;DHT22;37894;53.172;6.598;2022-09-09T06:22:40;14.40;99.90
51853;DHT22;37894;53.172;6.598;2022-09-09T06:25:09;14.50;99.90
51853;DHT22;37894;53.172;6.598;2022-09-09T06:27:35;14.40;99.90
51853;DHT22;37894;53.172;6.598;2022-09-09T06:30:00;14.40;99.90
51853;DHT22;37894;53.172;6.598;2022-09-09T06:32:26;14.40;99.90
51853;DHT22;37894;53.172;6.598;2022-09-09T06:34:52;14.40;99.90
51853;DHT22;37894;53.172;6.598;2022-09-09T06:37:18;14.40;99.90
51853;DHT22;37894;53.172;6.598;2022-09-09T06:39:44;14.40;99.90
51853;DHT22;37894;53.172;6.598;2022-09-09T06:42:09;14.60;99.90
51853;DHT22;37894;53.172;6.598;2022-09-09T06:44:35;14.50;99.90
51853;DHT22;37894;53.172;6.598;2022-09-09T06:47:01;14.50;99.90
51853;DHT22;37894;53.172;6.598;2022-09-09T06:49:27;14.50;99.90
51853;DHT22;37894;53.172;6.598;2022-09-09T06:51:53;14.60;99.90
51853;DHT22;37894;53.172;6.598;2022-09-09T06:54:19;14.60;99.90
51853;DHT22;37894;53.172;6.598;2022-09-09T06:56:45;14.60;99.90
51853;DHT22;37894;53.172;6.598;2022-09-09T06:59:11;14.60;99.90
51853;DHT22;37894;53.172;6.598;2022-09-09T07:01:39;14.70;99.90
51853;DHT22;37894;53.172;6.598;2022-09-09T07:04:12;14.70;99.90
51853;DHT22;37894;53.172;6.598;2022-09-09T07:06:41;14.80;99.90
51853;DHT22;37894;53.172;6.598;2022-09-09T07:09:10;14.80;99.90
51853;DHT22;37894;53.172;6.598;2022-09-09T07:11:47;14.80;99.90
51853;DHT22;37894;53.172;6.598;2022-09-09T07:14:14;14.90;99.90
51853;DHT22;37894;53.172;6.598;2022-09-09T07:16:44;15.50;99.90
51853;DHT22;37894;53.172;6.598;2022-09-09T07:19:11;14.90;99.90
51853;DHT22;37894;53.172;6.598;2022-09-09T07:21:37;14.90;99.90
51853;DHT22;37894;53.172;6.598;2022-09-09T07:24:02;14.90;99.90
51853;DHT22;37894;53.172;6.598;2022-09-09T07:26:30;15.00;99.90
51853;DHT22;37894;53.172;6.598;2022-09-09T07:28:56;16.10;99.90
51853;DHT22;37894;53.172;6.598;2022-09-09T07:31:34;15.00;99.90
51853;DHT22;37894;53.172;6.598;2022-09-09T07:34:02;15.10;99.90
51853;DHT22;37894;53.172;6.598;2022-09-09T07:36:30;15.20;99.90
51853;DHT22;37894;53.172;6.598;2022-09-09T07:38:58;15.30;99.90
51853;DHT22;37894;53.172;6.598;2022-09-09T07:41:33;15.80;99.90
51853;DHT22;37894;53.172;6.598;2022-09-09T07:44:03;15.30;99.90
51853;DHT22;37894;53.172;6.598;2022-09-09T07:46:30;15.40;99.90
51853;DHT22;37894;53.172;6.598;2022-09-09T07:48:56;15.40;99.90
51853;DHT22;37894;53.172;6.598;2022-09-09T07:51:34;15.40;99.90
51853;DHT22;37894;53.172;6.598;2022-09-09T07:54:06;15.40;99.90
51853;DHT22;37894;53.172;6.598;2022-09-09T07:56:35;15.50;99.90
51853;DHT22;37894;53.172;6.598;2022-09-09T07:59:02;15.50;99.90
51853;DHT22;37894;53.172;6.598;2022-09-09T08:01:34;15.50;99.90
51853;DHT22;37894;53.172;6.598;2022-09-09T08:04:17;15.60;99.90
51853;DHT22;37894;53.172;6.598;2022-09-09T08:06:48;15.70;99.90
51853;DHT22;37894;53.172;6.598;2022-09-09T08:09:15;15.80;99.90
51853;DHT22;37894;53.172;6.598;2022-09-09T08:11:41;15.90;99.90
51853;DHT22;37894;53.172;6.598;2022-09-09T08:14:08;16.00;99.90
51853;DHT22;37894;53.172;6.598;2022-09-09T08:16:41;16.10;99.90
51853;DHT22;37894;53.172;6.598;2022-09-09T08:19:07;16.20;99.90
51853;DHT22;37894;53.172;6.598;2022-09-09T08:21:34;16.40;99.90
51853;DHT22;37894;53.172;6.598;2022-09-09T08:24:03;16.60;99.90
51853;DHT22;37894;53.172;6.598;2022-09-09T08:26:35;16.60;99.90
51853;DHT22;37894;53.172;6.598;2022-09-09T08:29:03;16.70;99.90
51853;DHT22;37894;53.172;6.598;2022-09-09T08:31:33;16.70;99.90
51853;DHT22;37894;53.172;6.598;2022-09-09T08:33:59;16.80;99.90
51853;DHT22;37894;53.172;6.598;2022-09-09T08:36:27;16.80;99.90
51853;DHT22;37894;53.172;6.598;2022-09-09T08:38:55;17.80;99.90
51853;DHT22;37894;53.172;6.598;2022-09-09T08:58:19;17.00;99.90
51853;DHT22;37894;53.172;6.598;2022-09-09T09:03:53;17.10;99.90
51853;DHT22;37894;53.172;6.598;2022-09-09T09:11:51;17.20;99.90
51853;DHT22;37894;53.172;6.598;2022-09-09T09:14:29;17.20;99.90
51853;DHT22;37894;53.172;6.598;2022-09-09T09:17:14;17.20;99.90
51853;DHT22;37894;53.172;6.598;2022-09-09T09:19:42;17.00;99.90
51853;DHT22;37894;53.172;6.598;2022-09-09T09:25:05;17.30;99.90
51853;DHT22;37894;53.172;6.598;2022-09-09T09:30:24;17.40;99.90
51853;DHT22;37894;53.172;6.598;2022-09-09T09:33:02;17.70;99.90
51853;DHT22;37894;53.172;6.598;2022-09-09T09:35:28;17.80;99.90
51853;DHT22;37894;53.172;6.598;2022-09-09T09:37:54;18.00;99.90
51853;DHT22;37894;53.172;6.598;2022-09-09T09:40:22;18.10;99.90
51853;DHT22;37894;53.172;6.598;2022-09-09T09:42:54;18.20;99.90
51853;DHT22;37894;53.172;6.598;2022-09-09T09:45:33;18.20;99.90
51853;DHT22;37894;53.172;6.598;2022-09-09T09:48:04;18.30;99.90
51853;DHT22;37894;53.172;6.598;2022-09-09T09:50:32;18.40;99.90
51853;DHT22;37894;53.172;6.598;2022-09-09T09:53:01;18.50;99.90
51853;DHT22;37894;53.172;6.598;2022-09-09T09:55:31;18.50;99.90
51853;DHT22;37894;53.172;6.598;2022-09-09T09:58:05;18.50;99.90
51853;DHT22;37894;53.172;6.598;2022-09-09T10:00:32;18.60;99.90
51853;DHT22;37894;53.172;6.598;2022-09-09T10:03:01;18.70;99.90
51853;DHT22;37894;53.172;6.598;2022-09-09T10:05:29;18.70;99.90
51853;DHT22;37894;53.172;6.598;2022-09-09T10:10:49;18.80;99.90
51853;DHT22;37894;53.172;6.598;2022-09-09T10:21:52;19.20;99.90
51853;DHT22;37894;53.172;6.598;2022-09-09T10:35:10;19.00;99.90
51853;DHT22;37894;53.172;6.598;2022-09-09T10:42:52;18.70;99.90
51853;DHT22;37894;53.172;6.598;2022-09-09T10:51:05;18.60;99.90
51853;DHT22;37894;53.172;6.598;2022-09-09T10:54:06;18.50;99.90
51853;DHT22;37894;53.172;6.598;2022-09-09T10:56:38;18.80;99.90
51853;DHT22;37894;53.172;6.598;2022-09-09T11:04:42;19.00;99.90
51853;DHT22;37894;53.172;6.598;2022-09-09T11:07:13;19.00;99.90
51853;DHT22;37894;53.172;6.598;2022-09-09T11:09:48;18.90;99.90
51853;DHT22;37894;53.172;6.598;2022-09-09T11:12:18;18.90;99.90
51853;DHT22;37894;53.172;6.598;2022-09-09T11:14:59;18.80;99.90
51853;DHT22;37894;53.172;6.598;2022-09-09T11:17:34;18.80;99.90
51853;DHT22;37894;53.172;6.598;2022-09-09T11:20:02;18.80;99.90
51853;DHT22;37894;53.172;6.598;2022-09-09T11:22:42;19.00;99.90
51853;DHT22;37894;53.172;6.598;2022-09-09T11:25:16;19.30;99.90
51853;DHT22;37894;53.172;6.598;2022-09-09T11:34:01;20.40;99.90
51853;DHT22;37894;53.172;6.598;2022-09-09T11:39:35;20.90;99.90
51853;DHT22;37894;53.172;6.598;2022-09-09T11:44:40;21.10;99.90
51853;DHT22;37894;53.172;6.598;2022-09-09T11:47:24;21.00;99.90
51853;DHT22;37894;53.172;6.598;2022-09-09T11:49:54;20.70;99.90
51853;DHT22;37894;53.172;6.598;2022-09-09T11:52:24;20.50;99.90
51853;DHT22;37894;53.172;6.598;2022-09-09T11:54:54;20.50;99.90
51853;DHT22;37894;53.172;6.598;2022-09-09T11:57:31;20.50;99.90
51853;DHT22;37894;53.172;6.598;2022-09-09T11:59:57;20.60;99.90
51853;DHT22;37894;53.172;6.598;2022-09-09T12:02:26;20.80;99.90
51853;DHT22;37894;53.172;6.598;2022-09-09T12:04:59;20.70;99.90
51853;DHT22;37894;53.172;6.598;2022-09-09T12:09:56;20.60;99.90
51853;DHT22;37894;53.172;6.598;2022-09-09T12:12:27;20.60;99.90
51853;DHT22;37894;53.172;6.598;2022-09-09T12:17:30;20.70;99.90
51853;DHT22;37894;53.172;6.598;2022-09-09T12:28:18;20.80;99.90
51853;DHT22;37894;53.172;6.598;2022-09-09T12:31:10;20.70;99.90
51853;DHT22;37894;53.172;6.598;2022-09-09T12:33:43;20.60;99.90
51853;DHT22;37894;53.172;6.598;2022-09-09T12:36:17;20.30;99.90
51853;DHT22;37894;53.172;6.598;2022-09-09T12:38:45;20.10;99.90
51853;DHT22;37894;53.172;6.598;2022-09-09T12:41:28;19.80;99.90
51853;DHT22;37894;53.172;6.598;2022-09-09T12:44:09;19.70;99.90
51853;DHT22;37894;53.172;6.598;2022-09-09T12:46:42;19.80;99.90
51853;DHT22;37894;53.172;6.598;2022-09-09T12:49:30;19.90;99.90
51853;DHT22;37894;53.172;6.598;2022-09-09T12:52:01;20.10;99.90
51853;DHT22;37894;53.172;6.598;2022-09-09T12:54:28;20.30;99.90
51853;DHT22;37894;53.172;6.598;2022-09-09T12:56:54;20.40;99.90
51853;DHT22;37894;53.172;6.598;2022-09-09T12:59:35;20.50;99.90
51853;DHT22;37894;53.172;6.598;2022-09-09T13:02:01;20.80;99.90
51853;DHT22;37894;53.172;6.598;2022-09-09T13:04:27;21.10;99.90
51853;DHT22;37894;53.172;6.598;2022-09-09T13:06:53;21.20;99.90
51853;DHT22;37894;53.172;6.598;2022-09-09T13:09:19;21.50;99.90
51853;DHT22;37894;53.172;6.598;2022-09-09T13:11:54;22.00;99.90
51853;DHT22;37894;53.172;6.598;2022-09-09T13:14:33;22.00;99.90
51853;DHT22;37894;53.172;6.598;2022-09-09T13:17:04;21.90;99.90
51853;DHT22;37894;53.172;6.598;2022-09-09T13:19:35;21.90;99.90
51853;DHT22;37894;53.172;6.598;2022-09-09T13:27:34;21.70;99.90
51853;DHT22;37894;53.172;6.598;2022-09-09T13:30:20;21.80;99.90
51853;DHT22;37894;53.172;6.598;2022-09-09T13:32:59;22.00;99.90
51853;DHT22;37894;53.172;6.598;2022-09-09T13:35:26;22.40;99.90
51853;DHT22;37894;53.172;6.598;2022-09-09T13:37:52;22.50;99.90
51853;DHT22;37894;53.172;6.598;2022-09-09T13:40:21;22.20;99.90
51853;DHT22;37894;53.172;6.598;2022-09-09T13:42:50;21.80;99.90
51853;DHT22;37894;53.172;6.598;2022-09-09T13:45:19;21.40;99.90
51853;DHT22;37894;53.172;6.598;2022-09-09T13:47:49;21.10;99.90
51853;DHT22;37894;53.172;6.598;2022-09-09T13:50:27;20.90;99.90
51853;DHT22;37894;53.172;6.598;2022-09-09T13:52:55;20.90;99.90
51853;DHT22;37894;53.172;6.598;2022-09-09T13:55:25;21.10;99.90
51853;DHT22;37894;53.172;6.598;2022-09-09T13:57:56;21.80;99.90
51853;DHT22;37894;53.172;6.598;2022-09-09T14:00:23;22.10;99.90
51853;DHT22;37894;53.172;6.598;2022-09-09T14:02:52;22.40;99.90
51853;DHT22;37894;53.172;6.598;2022-09-09T14:05:20;22.90;99.90
51853;DHT22;37894;53.172;6.598;2022-09-09T14:07:48;23.40;99.90
51853;DHT22;37894;53.172;6.598;2022-09-09T14:10:14;23.30;99.90
51853;DHT22;37894;53.172;6.598;2022-09-09T14:12:41;22.90;99.90
51853;DHT22;37894;53.172;6.598;2022-09-09T14:15:08;22.50;99.90
51853;DHT22;37894;53.172;6.598;2022-09-09T14:17:35;23.10;99.90
51853;DHT22;37894;53.172;6.598;2022-09-09T14:20:05;21.60;99.90
51853;DHT22;37894;53.172;6.598;2022-09-09T14:22:35;21.20;99.90
51853;DHT22;37894;53.172;6.598;2022-09-09T14:25:02;21.00;99.90
51853;DHT22;37894;53.172;6.598;2022-09-09T14:27:28;20.90;99.90
51853;DHT22;37894;53.172;6.598;2022-09-09T14:29:54;20.80;99.90
51853;DHT22;37894;53.172;6.598;2022-09-09T14:32:20;20.70;99.90
51853;DHT22;37894;53.172;6.598;2022-09-09T14:34:46;20.60;99.90
51853;DHT22;37894;53.172;6.598;2022-09-09T14:37:16;20.50;99.90
51853;DHT22;37894;53.172;6.598;2022-09-09T14:39:43;20.30;99.90
51853;DHT22;37894;53.172;6.598;2022-09-09T14:42:10;20.10;99.90
51853;DHT22;37894;53.172;6.598;2022-09-09T14:44:37;19.80;99.90
51853;DHT22;37894;53.172;6.598;2022-09-09T14:47:05;19.40;99.90
51853;DHT22;37894;53.172;6.598;2022-09-09T14:49:30;19.10;99.90
51853;DHT22;37894;53.172;6.598;2022-09-09T14:51:56;18.90;99.90
51853;DHT22;37894;53.172;6.598;2022-09-09T14:54:22;18.80;99.90
51853;DHT22;37894;53.172;6.598;2022-09-09T14:56:48;18.60;99.90
51853;DHT22;37894;53.172;6.598;2022-09-09T14:59:14;18.50;99.90
51853;DHT22;37894;53.172;6.598;2022-09-09T15:01:39;18.40;99.90
51853;DHT22;37894;53.172;6.598;2022-09-09T15:04:05;18.50;99.90
51853;DHT22;37894;53.172;6.598;2022-09-09T15:06:33;18.50;99.90
51853;DHT22;37894;53.172;6.598;2022-09-09T15:09:00;18.60;99.90
51853;DHT22;37894;53.172;6.598;2022-09-09T15:11:27;18.70;99.90
51853;DHT22;37894;53.172;6.598;2022-09-09T15:13:53;18.70;99.90
51853;DHT22;37894;53.172;6.598;2022-09-09T15:16:20;18.80;99.90
51853;DHT22;37894;53.172;6.598;2022-09-09T15:18:51;18.80;99.90
51853;DHT22;37894;53.172;6.598;2022-09-09T15:21:19;18.80;99.90
51853;DHT22;37894;53.172;6.598;2022-09-09T15:23:45;18.90;99.90
51853;DHT22;37894;53.172;6.598;2022-09-09T15:26:12;18.90;99.90
51853;DHT22;37894;53.172;6.598;2022-09-09T15:28:42;18.90;99.90
51853;DHT22;37894;53.172;6.598;2022-09-09T15:31:20;18.90;99.90
51853;DHT22;37894;53.172;6.598;2022-09-09T15:33:57;18.80;99.90
51853;DHT22;37894;53.172;6.598;2022-09-09T15:39:02;18.80;99.90
51853;DHT22;37894;53.172;6.598;2022-09-09T15:41:29;18.80;99.90
51853;DHT22;37894;53.172;6.598;2022-09-09T15:43:56;18.90;99.90
51853;DHT22;37894;53.172;6.598;2022-09-09T15:48:50;18.90;99.90
51853;DHT22;37894;53.172;6.598;2022-09-09T15:51:16;19.00;99.90
51853;DHT22;37894;53.172;6.598;2022-09-09T15:53:42;19.00;99.90
51853;DHT22;37894;53.172;6.598;2022-09-09T15:56:08;19.00;99.90
51853;DHT22;37894;53.172;6.598;2022-09-09T15:58:35;18.90;99.90
51853;DHT22;37894;53.172;6.598;2022-09-09T16:01:09;18.80;99.90
51853;DHT22;37894;53.172;6.598;2022-09-09T16:03:39;18.80;99.90
51853;DHT22;37894;53.172;6.598;2022-09-09T16:06:06;18.70;99.90
51853;DHT22;37894;53.172;6.598;2022-09-09T16:08:37;18.70;99.90
51853;DHT22;37894;53.172;6.598;2022-09-09T16:11:07;19.10;99.90
51853;DHT22;37894;53.172;6.598;2022-09-09T16:13:39;18.80;99.90
51853;DHT22;37894;53.172;6.598;2022-09-09T16:16:05;18.50;99.90
51853;DHT22;37894;53.172;6.598;2022-09-09T16:18:36;18.40;99.90
51853;DHT22;37894;53.172;6.598;2022-09-09T16:21:02;18.40;99.90
51853;DHT22;37894;53.172;6.598;2022-09-09T16:23:28;18.40;99.90
51853;DHT22;37894;53.172;6.598;2022-09-09T16:25:57;18.30;99.90
51853;DHT22;37894;53.172;6.598;2022-09-09T16:28:23;18.30;99.90
51853;DHT22;37894;53.172;6.598;2022-09-09T16:30:49;18.20;99.90
51853;DHT22;37894;53.172;6.598;2022-09-09T16:33:15;18.20;99.90
51853;DHT22;37894;53.172;6.598;2022-09-09T16:35:42;18.20;99.90
51853;DHT22;37894;53.172;6.598;2022-09-09T16:38:08;18.20;99.90
51853;DHT22;37894;53.172;6.598;2022-09-09T16:40:37;18.20;99.90
51853;DHT22;37894;53.172;6.598;2022-09-09T16:43:04;18.10;99.90
51853;DHT22;37894;53.172;6.598;2022-09-09T16:45:31;18.10;99.90
51853;DHT22;37894;53.172;6.598;2022-09-09T16:47:58;18.00;99.90
51853;DHT22;37894;53.172;6.598;2022-09-09T16:50:24;18.00;99.90
51853;DHT22;37894;53.172;6.598;2022-09-09T16:52:51;17.90;99.90
51853;DHT22;37894;53.172;6.598;2022-09-09T16:55:17;17.90;99.90
51853;DHT22;37894;53.172;6.598;2022-09-09T16:57:46;17.80;99.90
51853;DHT22;37894;53.172;6.598;2022-09-09T17:00:15;17.80;99.90
51853;DHT22;37894;53.172;6.598;2022-09-09T17:02:43;17.70;99.90
51853;DHT22;37894;53.172;6.598;2022-09-09T17:05:09;17.70;99.90
51853;DHT22;37894;53.172;6.598;2022-09-09T17:07:35;17.60;99.90
51853;DHT22;37894;53.172;6.598;2022-09-09T17:10:01;17.70;99.90
51853;DHT22;37894;53.172;6.598;2022-09-09T17:12:27;17.60;99.90
51853;DHT22;37894;53.172;6.598;2022-09-09T17:14:53;17.60;99.90
51853;DHT22;37894;53.172;6.598;2022-09-09T17:17:20;17.50;99.90
51853;DHT22;37894;53.172;6.598;2022-09-09T17:19:47;17.50;99.90
51853;DHT22;37894;53.172;6.598;2022-09-09T17:22:12;17.40;99.90
51853;DHT22;37894;53.172;6.598;2022-09-09T17:24:38;17.40;99.90
51853;DHT22;37894;53.172;6.598;2022-09-09T17:27:06;17.40;99.90
51853;DHT22;37894;53.172;6.598;2022-09-09T17:29:32;17.40;99.90
51853;DHT22;37894;53.172;6.598;2022-09-09T17:32:02;18.10;99.90
51853;DHT22;37894;53.172;6.598;2022-09-09T17:34:28;17.30;99.90
51853;DHT22;37894;53.172;6.598;2022-09-09T17:36:53;17.30;99.90
51853;DHT22;37894;53.172;6.598;2022-09-09T17:39:19;17.30;99.90
51853;DHT22;37894;53.172;6.598;2022-09-09T17:41:45;17.20;99.90
51853;DHT22;37894;53.172;6.598;2022-09-09T17:44:11;17.20;99.90
51853;DHT22;37894;53.172;6.598;2022-09-09T17:46:39;17.20;99.90
51853;DHT22;37894;53.172;6.598;2022-09-09T17:49:14;17.20;99.90
51853;DHT22;37894;53.172;6.598;2022-09-09T17:51:41;17.20;99.90
51853;DHT22;37894;53.172;6.598;2022-09-09T17:54:12;17.30;99.90
51853;DHT22;37894;53.172;6.598;2022-09-09T17:56:39;17.10;99.90
51853;DHT22;37894;53.172;6.598;2022-09-09T17:59:07;17.10;99.90
51853;DHT22;37894;53.172;6.598;2022-09-09T18:01:35;17.10;99.90
51853;DHT22;37894;53.172;6.598;2022-09-09T18:04:03;17.10;99.90
51853;DHT22;37894;53.172;6.598;2022-09-09T18:06:32;17.10;99.90
51853;DHT22;37894;53.172;6.598;2022-09-09T18:09:01;17.00;99.90
51853;DHT22;37894;53.172;6.598;2022-09-09T18:11:29;17.10;99.90
51853;DHT22;37894;53.172;6.598;2022-09-09T18:13:58;17.00;99.90
51853;DHT22;37894;53.172;6.598;2022-09-09T18:16:30;17.00;99.90